createdAt,value
2023-11-18T00:01:54.068Z,4.05
2023-11-18T00:06:55.843Z,4.04
2023-11-18T00:11:57.440Z,4.06
2023-11-18T00:17:00.374Z,3.97
2023-11-18T00:22:02.055Z,3.91
2023-11-18T00:27:07.647Z,3.86
2023-11-18T00:32:09.386Z,3.77
2023-11-18T00:37:11.044Z,3.73
2023-11-18T00:42:12.610Z,3.74
2023-11-18T00:52:33.841Z,3.81
2023-11-18T00:57:36.241Z,3.68
2023-11-18T01:02:40.126Z,3.55
2023-11-18T01:07:42.487Z,3.42
2023-11-18T01:12:47.227Z,3.30
2023-11-18T01:17:49.715Z,3.24
2023-11-18T01:22:51.582Z,3.24
2023-11-18T01:27:53.179Z,3.18
2023-11-18T01:32:54.823Z,3.27
2023-11-18T01:37:56.650Z,3.32
2023-11-18T01:42:58.252Z,3.21
2023-11-18T01:47:59.973Z,3.25
2023-11-18T01:53:02.202Z,3.28
2023-11-18T01:58:08.995Z,3.25
2023-11-18T02:03:10.773Z,3.29
2023-11-18T02:08:14.760Z,3.29
2023-11-18T02:13:32.421Z,3.36
2023-11-18T02:18:35.023Z,3.44
2023-11-18T02:23:36.808Z,3.51
2023-11-18T02:28:38.658Z,3.52
2023-11-18T02:34:00.584Z,3.57
2023-11-18T02:39:08.456Z,3.53
2023-11-18T02:44:11.651Z,3.54
2023-11-18T02:49:13.685Z,3.50
2023-11-18T02:54:17.636Z,3.57
2023-11-18T02:59:19.415Z,3.52
2023-11-18T03:04:21.026Z,3.57
2023-11-18T03:09:22.561Z,3.71
2023-11-18T03:14:24.592Z,3.73
2023-11-18T03:19:26.237Z,3.70
2023-11-18T03:24:29.516Z,3.66
2023-11-18T03:29:31.186Z,3.67
2023-11-18T03:34:33.744Z,3.57
2023-11-18T03:39:35.563Z,3.60
2023-11-18T03:44:38.703Z,3.62
2023-11-18T03:49:40.450Z,3.62
2023-11-18T03:54:43.037Z,3.60
2023-11-18T03:59:44.655Z,3.65
2023-11-18T04:04:46.350Z,3.71
2023-11-18T04:09:48.024Z,3.72
2023-11-18T04:14:49.859Z,3.73
2023-11-18T04:19:51.557Z,3.84
2023-11-18T04:24:53.192Z,3.81
2023-11-18T04:29:54.804Z,3.78
2023-11-18T04:34:56.727Z,3.78
2023-11-18T04:39:58.334Z,3.75
2023-11-18T04:45:00.305Z,3.64
2023-11-18T04:50:01.966Z,3.52
2023-11-18T04:55:06.595Z,3.60
2023-11-18T05:00:12.034Z,3.58
2023-11-18T05:05:13.862Z,3.66
2023-11-18T05:10:15.556Z,3.61
2023-11-18T05:15:17.153Z,3.60
2023-11-18T05:20:18.992Z,3.62
2023-11-18T05:25:21.155Z,3.66
2023-11-18T05:30:24.433Z,3.64
2023-11-18T05:35:29.525Z,3.71
2023-11-18T05:40:31.193Z,3.70
2023-11-18T05:45:55.351Z,3.70
2023-11-18T05:50:56.956Z,3.68
2023-11-18T05:55:58.497Z,3.69
2023-11-18T06:01:00.078Z,3.70
2023-11-18T06:06:01.668Z,3.74
2023-11-18T06:11:13.998Z,3.78
2023-11-18T06:16:25.466Z,3.82
2023-11-18T06:21:32.168Z,3.83
2023-11-18T06:26:37.296Z,3.87
2023-11-18T06:31:39.113Z,3.92
2023-11-18T06:36:40.793Z,3.94
2023-11-18T06:41:50.074Z,3.98
2023-11-18T06:46:52.282Z,4.12
2023-11-18T06:51:54.255Z,4.16
2023-11-18T06:56:55.881Z,4.16
2023-11-18T07:01:57.470Z,4.24
2023-11-18T07:06:59.260Z,4.25
2023-11-18T07:12:00.777Z,4.35
2023-11-18T07:17:02.453Z,4.40
2023-11-18T07:22:07.670Z,4.44
2023-11-18T07:27:12.503Z,4.49
2023-11-18T07:32:15.125Z,4.54
2023-11-18T07:37:17.672Z,4.55
2023-11-18T07:42:19.523Z,4.60
2023-11-18T07:47:22.685Z,4.65
2023-11-18T07:52:25.093Z,4.72
2023-11-18T07:57:26.671Z,4.78
2023-11-18T08:02:29.178Z,4.87
2023-11-18T08:07:30.795Z,4.91
2023-11-18T08:12:36.030Z,5.01
2023-11-18T08:17:38.049Z,5.08
2023-11-18T08:22:39.828Z,5.09
2023-11-18T08:27:42.143Z,5.16
2023-11-18T08:32:46.468Z,5.23
2023-11-18T08:37:48.924Z,5.30
2023-11-18T08:42:52.124Z,5.35
2023-11-18T08:47:54.546Z,5.36
2023-11-18T08:53:00.124Z,5.45
2023-11-18T08:58:04.992Z,5.50
2023-11-18T09:03:07.244Z,5.57
2023-11-18T09:08:09.083Z,5.63
2023-11-18T09:13:13.129Z,5.67
2023-11-18T09:18:14.839Z,5.77
2023-11-18T09:23:19.933Z,5.79
2023-11-18T09:28:25.699Z,5.83
2023-11-18T09:33:33.796Z,5.84
2023-11-18T09:38:36.981Z,5.88
2023-11-18T09:43:49.353Z,5.90
2023-11-18T09:49:03.092Z,5.91
2023-11-18T09:54:19.220Z,5.94
2023-11-18T09:59:31.233Z,6.02
2023-11-18T10:04:34.305Z,6.06
2023-11-18T10:09:40.124Z,6.10
2023-11-18T10:14:44.902Z,6.20
2023-11-18T10:19:57.301Z,6.26
2023-11-18T10:25:02.086Z,6.34
2023-11-18T10:30:20.387Z,6.39
2023-11-18T10:35:22.428Z,6.38
2023-11-18T10:40:25.386Z,6.47
2023-11-18T10:45:28.792Z,6.51
2023-11-18T10:50:33.403Z,6.52
2023-11-18T10:55:39.372Z,6.54
2023-11-18T11:01:01.609Z,6.54
2023-11-18T11:06:18.348Z,6.56
2023-11-18T11:11:26.820Z,6.55
2023-11-18T11:16:52.643Z,6.45
2023-11-18T11:22:07.411Z,6.58
2023-11-18T11:27:40.040Z,6.60
2023-11-18T11:32:54.888Z,6.64
2023-11-18T11:38:05.160Z,6.62
2023-11-18T11:43:10.795Z,6.62
2023-11-18T11:48:16.572Z,6.58
2023-11-18T11:53:24.137Z,6.60
2023-11-18T11:58:34.511Z,6.64
2023-11-18T12:03:46.215Z,6.63
2023-11-18T12:08:52.323Z,6.65
2023-11-18T12:14:10.961Z,6.64
2023-11-18T12:19:37.501Z,6.55
2023-11-18T12:24:39.842Z,6.58
2023-11-18T12:29:44.942Z,6.52
2023-11-18T12:34:55.024Z,6.51
2023-11-18T12:40:05.738Z,6.50
2023-11-18T12:45:37.516Z,6.48
2023-11-18T12:50:46.733Z,6.55
2023-11-18T12:55:49.460Z,6.56
2023-11-18T13:00:51.207Z,6.59
2023-11-18T13:05:53.291Z,6.62
2023-11-18T13:10:54.937Z,6.66
2023-11-18T13:15:56.588Z,6.66
2023-11-18T13:20:59.156Z,6.69
2023-11-18T13:26:01.555Z,6.67
2023-11-18T13:31:04.550Z,6.69
2023-11-18T13:36:07.823Z,6.71
2023-11-18T13:41:10.516Z,6.72
2023-11-18T13:46:15.750Z,6.74
2023-11-18T13:51:19.091Z,6.75
2023-11-18T13:56:21.330Z,6.79
2023-11-18T14:01:23.226Z,6.85
2023-11-18T14:06:28.497Z,6.88
2023-11-18T14:11:30.679Z,6.90
2023-11-18T14:16:32.322Z,6.93
2023-11-18T14:21:33.974Z,6.95
2023-11-18T14:26:35.694Z,6.94
2023-11-18T14:31:37.513Z,6.90
2023-11-18T14:36:39.193Z,6.85
2023-11-18T14:41:41.725Z,6.81
2023-11-18T14:46:43.706Z,6.75
2023-11-18T14:51:45.269Z,6.74
2023-11-18T14:56:50.422Z,6.69
2023-11-18T15:01:53.387Z,6.61
2023-11-18T15:07:00.652Z,6.55
2023-11-18T15:12:02.736Z,6.50
2023-11-18T15:17:04.616Z,6.47
2023-11-18T15:22:06.294Z,6.44
2023-11-18T15:27:07.816Z,6.40
2023-11-18T15:32:09.635Z,6.39
2023-11-18T15:37:11.510Z,6.37
2023-11-18T15:42:14.877Z,6.36
2023-11-18T15:47:18.336Z,6.36
2023-11-18T15:52:19.913Z,6.35
2023-11-18T15:57:22.642Z,6.31
2023-11-18T16:02:25.060Z,6.33
2023-11-18T16:07:26.646Z,6.31
2023-11-18T16:12:30.752Z,6.31
2023-11-18T16:17:32.340Z,6.33
2023-11-18T16:22:35.557Z,6.35
2023-11-18T16:27:37.377Z,6.34
2023-11-18T16:32:38.940Z,6.35
2023-11-18T16:37:40.898Z,6.37
2023-11-18T16:42:43.644Z,6.37
2023-11-18T16:47:46.933Z,6.38
2023-11-18T16:52:51.524Z,6.42
2023-11-18T16:57:54.692Z,6.43
2023-11-18T17:02:59.431Z,6.43
2023-11-18T17:08:02.577Z,6.45
2023-11-18T17:13:05.669Z,6.44
2023-11-18T17:18:07.503Z,6.45
2023-11-18T17:23:09.245Z,6.45
2023-11-18T17:28:10.889Z,6.46
2023-11-18T17:33:12.950Z,6.47
2023-11-18T17:38:14.556Z,6.46
2023-11-18T17:43:16.139Z,6.46
2023-11-18T17:48:17.761Z,6.44
2023-11-18T17:53:19.882Z,6.47
2023-11-18T17:58:21.536Z,6.48
2023-11-18T18:03:23.078Z,6.50
2023-11-18T18:08:24.737Z,6.51
2023-11-18T18:13:26.364Z,6.52
2023-11-18T18:18:28.112Z,6.54
2023-11-18T18:23:30.493Z,6.56
2023-11-18T18:28:32.079Z,6.55
2023-11-18T18:33:33.574Z,6.58
2023-11-18T18:38:35.115Z,6.60
2023-11-18T18:43:36.635Z,6.61
2023-11-18T18:48:38.290Z,6.64
2023-11-18T18:53:39.822Z,6.64
2023-11-18T18:58:41.420Z,6.65
2023-11-18T19:03:43.092Z,6.68
2023-11-18T19:08:44.715Z,6.72
2023-11-18T19:13:46.314Z,6.77
2023-11-18T19:18:47.889Z,6.78
2023-11-18T19:23:49.440Z,6.81
2023-11-18T19:28:50.978Z,6.84
2023-11-18T19:33:52.536Z,6.88
2023-11-18T19:38:54.125Z,6.93
2023-11-18T19:43:56.857Z,6.95
2023-11-18T19:48:58.656Z,7.01
2023-11-18T19:54:00.204Z,7.05
2023-11-18T19:59:01.818Z,7.08
2023-11-18T20:04:03.605Z,7.11
2023-11-18T20:09:07.525Z,7.16
2023-11-18T20:14:09.136Z,7.18
2023-11-18T20:19:10.785Z,7.19
2023-11-18T20:24:12.343Z,7.23
2023-11-18T20:29:14.724Z,7.27
2023-11-18T20:34:16.496Z,7.31
2023-11-18T20:39:20.702Z,7.31
2023-11-18T20:44:22.309Z,7.35
2023-11-18T20:49:23.924Z,7.37
2023-11-18T20:54:26.413Z,7.42
2023-11-18T20:59:28.144Z,7.46
2023-11-18T21:04:30.570Z,7.50
2023-11-18T21:09:32.256Z,7.56
2023-11-18T21:14:34.672Z,7.62
2023-11-18T21:19:36.225Z,7.71
2023-11-18T21:24:37.719Z,7.76
2023-11-18T21:29:39.284Z,7.81
2023-11-18T21:34:44.255Z,7.88
2023-11-18T21:39:46.159Z,7.92
2023-11-18T21:44:48.633Z,7.95
2023-11-18T21:49:52.821Z,7.99
2023-11-18T21:54:54.642Z,8.03
2023-11-18T21:59:56.228Z,8.05
2023-11-18T22:04:59.277Z,8.08
2023-11-18T22:10:00.944Z,8.09
2023-11-18T22:15:05.487Z,8.10
2023-11-18T22:20:13.538Z,8.12
2023-11-18T22:25:16.134Z,8.14
2023-11-18T22:30:18.381Z,8.16
2023-11-18T22:35:20.985Z,8.19
2023-11-18T22:40:23.166Z,8.20
2023-11-18T22:45:24.690Z,8.18
2023-11-18T22:50:26.402Z,8.23
2023-11-18T22:55:28.376Z,8.24
2023-11-18T23:00:36.006Z,8.27
2023-11-18T23:05:40.479Z,8.32
2023-11-18T23:10:42.205Z,8.35
2023-11-18T23:21:03.927Z,8.43
2023-11-18T23:26:06.741Z,8.48
2023-11-18T23:31:12.327Z,8.53
2023-11-18T23:36:17.055Z,8.55
2023-11-18T23:41:18.785Z,8.59
2023-11-18T23:46:20.725Z,8.61
2023-11-18T23:51:22.280Z,8.64
2023-11-18T23:56:23.806Z,8.65
